AirNav  
 
 383 users online  

TS81 Flanders Field Airport
Lott, Texas, USA

GOING TO LOTT?


FAA INFORMATION EFFECTIVE 29 MARCH 2018

Location

FAA Identifier: TS81
Lat/Long: 31-09-26.8000N / 097-04-30.9000W
31-09.446667N / 097-04.515000W
31.1574444 / -97.0752500
(estimated)
Elevation: 460 ft. / 140 m (estimated)
From city: 3 miles SW of LOTT, TX
Time zone: UTC +0 (year round; does not observe DST)
Zip code: 76656

Airport Operations

Airport use: Private use. Permission required prior to landing
Activation date: 09/2017
Control tower: no
ARTCC: FORT WORTH CENTER
FSS: FORT WORTH FLIGHT SERVICE STATION
Attendance: 
Segmented circle: no

Airport Communications

WX AWOS-3PT at TPL (17 nm W): 134.975 (254-774-8337)
WX AWOS-3PT at T35 (18 nm S): 124.1 (254-605-0856)

Nearby radio navigation aids

VOR radial/distance  VOR name  Freq  Var
TPLr091/18.2TEMPLE VOR/DME110.4009E
ACTr153/31.9WACO VORTAC115.3009E
GNLr222/37.1GROESBECK VOR/DME108.8005E
GRKr075/38.7GRAY VOR/DME111.8004E

 
NDB name  Hdg/Dist  Freq  Var  ID
ROBINSON174/20.840007EROB .-. --- -...
HOOD080/32.734707EHLR .... .-.. .-.

Airport Services

Runway Information

Runway 17/35

Dimensions: 2265 x 60 ft. / 690 x 18 m
Surface: turf
RUNWAY 17  RUNWAY 35
Traffic pattern: leftleft

Airport Ownership and Management from official FAA records

Ownership: Privately-owned
Owner: MATTHEW WITT
402 COUNTY ROAD 489
LOTT, TX 76656
Phone 254-495-7963
WINGANDPROP@YAHOO.COM
Manager: MATTHEW WITT
483 KASH DERRICK DR
CHINA SPRING, TX 76633
Phone 254-495-7963
WINGANDPROP@YAHOO.COM

Instrument Procedures

There are no published instrument procedures at TS81.

Some nearby airports with instrument procedures:

T15 - Marlin Airport (16 nm NE)
KTPL - Draughon-Miller Central Texas Regional Airport (17 nm W)
KPWG - Mc Gregor Executive Airport (23 nm NW)
KACT - Waco Regional Airport (28 nm N)
KCNW - TSTC Waco Airport (29 nm N)
 
Loc | Ops | Rwys | IFR | FBO | Links
Com | Nav | Svcs | Stats | Notes

AirNav Hotels Sweepstakes
 
Aerial photo
No photo
 
Airport distance calculator
Flying to Flanders Field Airport? Find the distance to fly.

From to TS81

Sunrise and sunset
Times for 19-Apr-2018
 Zulu (UTC)
Morning civil twilight11:32
Sunrise11:57
Sunset00:58
Evening civil twilight01:23

Current date and time
Zulu (UTC)  20-Apr-2018 06:15:04
 
METAR
KTPL 
17nm W 
200551Z AUTO 06009KT 10SM CLR 13/04 A3025 RMK AO2 SLP255 T01330044 10200 20122 402280083 55004
KT35 
18nm S 
200555Z AUTO 04003KT 10SM CLR 13/05 A3024 RMK AO2 T01290047 10197 20128 402300100
KPWG 
22nm NW 
200556Z AUTO 06004KT 10SM CLR 12/04 A3025 RMK AO2 SLP258 T01220044 10206 20100 402280078 55003
KCNW 
29nm N 
200355Z 03004KT 10SM SKC 10/05 A3027
KACT 
29nm N 
200551Z AUTO 06004KT 10SM CLR 09/03 A3025 RMK AO2 SLP239 T00940033 10206 20094 402330083 58004
KLHB 
29nm SE 
200555Z AUTO 00000KT 10SM CLR 12/06 A3025 RMK AO2 T01190062 10200 20117 402310099
KILE 
31nm W 
200556Z AUTO 00000KT 10SM CLR 12/06 A3025 RMK AO2 SLP258 T01170056 10200 20117 402330106 55002
KHLR 
33nm W 
200558Z AUTO 09004KT 10SM FEW230 13/04 A3021 RMK AO2 SLP225 T01320042 10201 20132 402250101 55001
TAF
KACT 
29nm N 
200520Z 2006/2106 09007KT P6SM BKN200 FM202000 13011KT P6SM BKN100
NOTAMs
Click for the latest NOTAMs
NOTAMs are issued by the DoD/FAA and will open in a separate window not controlled by AirNav.

 

 
 

Would you like to see your business listed on this page?

 If your business provides an interesting product or service to pilots, flight crews, aircraft, or users of the Flanders Field Airport, you should consider listing it here.  To start the listing process, click on the button below
 
Add a business
 

Other Pages about Flanders Field Airport

Update a link
 
Copyright © AirNav, LLC. All rights reserved. Privacy Policy  Contact